πŸ“Š DonnΓ©es MΓ©tΓ©o - Bordeaux

Total mesures

14,364

TempΓ©rature moyenne

18.8Β°C

Temp. Min/Max

2.9Β° / 42.4Β°

HumiditΓ© moyenne

64.9%

Pression moyenne

1014.7 hPa
enregistrements
ID Date/Heure Temp (Β°C) HumiditΓ© (%) Pression (hPa) Tendance LuminositΓ© (lux) Situation
12764 11/08/2026 15:15 36.6 26.0 1,013.1 β†’ Stable 75,828 chaleur-seche
12763 11/08/2026 14:45 36.0 26.0 1,013.7 β†’ Stable 84,720 chaleur-seche
12762 11/08/2026 14:15 35.9 29.0 1,013.7 β†’ Stable 91,020 chaleur-seche
12761 11/08/2026 13:45 35.5 30.0 1,014.2 β†’ Stable 97,032 chaleur-seche
12760 11/08/2026 13:15 35.2 30.0 1,014.3 β†’ Stable 100,188 chaleur-seche
12759 11/08/2026 12:45 34.8 32.0 1,014.7 β†’ Stable 102,684 chaleur-seche
12758 11/08/2026 12:15 34.6 33.0 1,014.7 β†’ Stable 103,332 chaleur-seche
12757 11/08/2026 11:45 33.7 35.0 1,015.1 β†’ Stable 102,408 chaleur-seche
12756 11/08/2026 11:15 32.7 38.0 1,015.1 β†’ Stable 100,092 chaleur-seche
12755 11/08/2026 10:45 31.9 42.0 1,015.4 β†’ Stable 95,928 confortablement-chaud (approx.)
12754 11/08/2026 10:15 30.7 48.0 1,015.4 β†’ Stable 90,648 confortablement-chaud (approx.)
12753 11/08/2026 09:45 29.6 52.0 1,015.7 β†’ Stable 83,244 confortablement-chaud (approx.)
12752 11/08/2026 09:15 27.9 59.0 1,015.7 β†’ Stable 76,020 confortablement-chaud
12751 11/08/2026 08:45 26.7 64.0 1,015.7 β†’ Stable 66,024 confortablement-chaud (approx.)
12750 11/08/2026 08:15 25.1 73.0 1,015.7 β†’ Stable 57,036 pluvieux-gris (approx.)
12749 11/08/2026 07:45 24.2 77.0 1,015.4 β†’ Stable 45,744 pluvieux-gris (approx.)
12748 11/08/2026 07:15 23.1 80.0 1,015.4 β†’ Stable 36,024 pluvieux-gris (approx.)
12747 11/08/2026 06:45 22.2 85.0 1,015.5 β†’ Stable 24,540 pluvieux-gris (approx.)
12746 11/08/2026 06:15 20.8 90.0 1,015.5 β†’ Stable 14,724 pluvieux-gris (approx.)
12745 11/08/2026 06:00 20.6 91.0 1,015.5 β†’ Stable 10,464 pluvieux-gris (approx.)
12744 11/08/2026 05:45 20.6 91.0 1,015.2 β†’ Stable 5,928 pluvieux-gris (approx.)
12743 11/08/2026 05:15 20.6 90.0 1,015.1 β†’ Stable 96 pluvieux-gris (approx.)
12742 11/08/2026 04:45 21.0 87.0 1,014.9 β†’ Stable 0 pluvieux-gris (approx.)
12741 11/08/2026 04:15 21.1 86.0 1,014.9 β†’ Stable 0 pluvieux-gris (approx.)
12740 11/08/2026 03:45 21.2 86.0 1,014.9 β†’ Stable 0 pluvieux-gris (approx.)
12739 11/08/2026 03:15 21.5 84.0 1,014.9 β†’ Stable 0 pluvieux-gris (approx.)
12738 11/08/2026 02:45 21.4 85.0 1,014.8 β†’ Stable 0 pluvieux-gris (approx.)
12737 11/08/2026 02:15 21.9 82.0 1,014.8 β†’ Stable 0 pluvieux-gris (approx.)
12736 11/08/2026 01:45 22.0 81.0 1,014.7 β†’ Stable 0 pluvieux-gris (approx.)
12735 11/08/2026 01:15 22.3 76.0 1,014.7 β†’ Stable 0 pluvieux-gris (approx.)
12734 11/08/2026 00:45 22.5 74.0 1,014.8 β†’ Stable 0 pluvieux-gris (approx.)
12733 11/08/2026 00:15 22.7 72.0 1,014.8 β†’ Stable 0 pluvieux-gris (approx.)
12732 10/08/2026 23:45 22.7 71.0 1,014.9 β†’ Stable 0 pluvieux-gris (approx.)
12731 10/08/2026 23:15 23.3 68.0 1,014.9 β†’ Stable 0 conditions-neutrales-ou-non-definies
12730 10/08/2026 22:45 23.4 67.0 1,014.7 β†’ Stable 0 conditions-neutrales-ou-non-definies
12729 10/08/2026 22:15 24.0 65.0 1,014.7 β†’ Stable 0 confortablement-chaud (approx.)
12728 10/08/2026 21:45 24.3 70.0 1,014.5 β†’ Stable 0 pluvieux-gris (approx.)
12727 10/08/2026 21:15 24.9 71.0 1,014.5 β†’ Stable 0 pluvieux-gris (approx.)
12726 10/08/2026 20:45 25.6 68.0 1,013.6 β†’ Stable 0 confortablement-chaud (approx.)
12725 10/08/2026 20:15 26.7 63.0 1,013.6 β†’ Stable 0 confortablement-chaud (approx.)
12724 10/08/2026 19:45 28.1 58.0 1,012.7 β†’ Stable 0 confortablement-chaud (approx.)
12723 10/08/2026 19:15 29.3 54.0 1,012.7 β†’ Stable 0 conditions-neutrales-ou-non-definies
12722 10/08/2026 18:45 31.3 44.0 1,012.6 β†’ Stable 6,384 conditions-neutrales-ou-non-definies
12721 10/08/2026 18:15 31.5 45.0 1,012.6 β†’ Stable 15,924 conditions-neutrales-ou-non-definies
12720 10/08/2026 17:45 33.0 36.0 1,013.0 β†’ Stable 25,272 chaleur-seche
12719 10/08/2026 17:15 33.7 34.0 1,013.0 β†’ Stable 33,792 chaleur-seche
12718 10/08/2026 16:45 33.6 34.0 1,013.1 β†’ Stable 42,780 chaleur-seche
12717 10/08/2026 16:15 35.2 32.0 1,013.1 β†’ Stable 53,424 chaleur-seche
12716 10/08/2026 15:45 34.9 32.0 1,013.3 β†’ Stable 63,516 chaleur-seche
12715 10/08/2026 15:15 34.2 32.0 1,013.3 β†’ Stable 76,764 chaleur-seche
12714 10/08/2026 14:45 34.0 31.0 1,013.9 β†’ Stable 84,444 chaleur-seche
12713 10/08/2026 14:15 34.4 34.0 1,013.9 β†’ Stable 83,424 chaleur-seche
12712 10/08/2026 13:45 33.4 37.0 1,014.4 β†’ Stable 95,928 chaleur-seche
12711 10/08/2026 13:15 33.0 38.0 1,014.5 β†’ Stable 99,720 chaleur-seche
12710 10/08/2026 12:45 32.6 39.0 1,014.8 β†’ Stable 102,132 chaleur-seche
12709 10/08/2026 12:15 32.0 40.0 1,014.8 β†’ Stable 60,372 conditions-neutrales-ou-non-definies
12708 10/08/2026 11:45 31.7 42.0 1,014.9 β†’ Stable 99,444 confortablement-chaud (approx.)
12707 10/08/2026 11:15 31.0 43.0 1,014.9 β†’ Stable 98,328 confortablement-chaud (approx.)
12706 10/08/2026 10:45 29.9 48.0 1,015.7 β†’ Stable 95,280 confortablement-chaud (approx.)
12705 10/08/2026 10:15 29.3 48.0 1,015.7 β†’ Stable 90,372 confortablement-chaud (approx.)
12704 10/08/2026 09:45 28.6 50.0 1,015.4 β†’ Stable 83,052 confortablement-chaud
12703 10/08/2026 09:15 27.5 56.0 1,015.4 β†’ Stable 75,552 confortablement-chaud
12702 10/08/2026 08:45 26.7 60.0 1,015.1 β†’ Stable 65,652 confortablement-chaud (approx.)
12701 10/08/2026 08:15 25.8 66.0 1,015.1 β†’ Stable 56,760 confortablement-chaud (approx.)
12700 10/08/2026 07:45 24.8 72.0 1,014.9 β†’ Stable 45,468 pluvieux-gris (approx.)
12699 10/08/2026 07:15 23.6 76.0 1,014.9 β†’ Stable 33,888 pluvieux-gris (approx.)
12698 10/08/2026 06:45 22.8 80.0 1,014.5 β†’ Stable 24,444 pluvieux-gris (approx.)
12697 10/08/2026 06:15 22.4 76.0 1,014.5 β†’ Stable 14,820 pluvieux-gris (approx.)
12696 10/08/2026 05:45 21.5 86.0 1,014.7 β†’ Stable 6,108 pluvieux-gris (approx.)
12695 10/08/2026 05:15 21.1 88.0 1,014.7 β†’ Stable 96 pluvieux-gris (approx.)
12694 10/08/2026 04:45 21.4 86.0 1,015.0 β†’ Stable 0 pluvieux-gris (approx.)
12693 10/08/2026 04:15 21.5 85.0 1,015.0 β†’ Stable 0 pluvieux-gris (approx.)
12692 10/08/2026 03:45 21.6 85.0 1,014.7 β†’ Stable 0 pluvieux-gris (approx.)
12691 10/08/2026 03:15 21.4 87.0 1,014.7 β†’ Stable 0 pluvieux-gris (approx.)
12690 10/08/2026 02:45 21.5 86.0 1,014.8 β†’ Stable 0 pluvieux-gris (approx.)
12689 10/08/2026 02:15 21.7 92.0 1,014.8 β†’ Stable 0 pluvieux-gris (approx.)
12688 10/08/2026 01:45 22.7 74.0 1,014.5 β†’ Stable 0 pluvieux-gris (approx.)
12687 10/08/2026 01:15 23.0 76.0 1,014.4 β†’ Stable 0 pluvieux-gris (approx.)
12686 10/08/2026 00:45 23.2 77.0 1,013.6 β†’ Stable 0 pluvieux-gris (approx.)
12685 10/08/2026 00:15 24.1 69.0 1,013.6 β†’ Stable 0 confortablement-chaud (approx.)
12684 09/08/2026 23:45 24.2 66.0 1,013.2 β†’ Stable 0 confortablement-chaud (approx.)
12683 09/08/2026 23:15 24.3 66.0 1,013.2 β†’ Stable 0 confortablement-chaud (approx.)
12682 09/08/2026 22:45 24.6 66.0 1,013.2 β†’ Stable 0 confortablement-chaud (approx.)
12681 09/08/2026 22:15 24.0 80.0 1,013.2 β†’ Stable 0 pluvieux-gris (approx.)
12680 09/08/2026 21:45 24.1 76.0 1,012.7 β†’ Stable 0 pluvieux-gris (approx.)
12679 09/08/2026 21:15 25.7 73.0 1,012.7 β†’ Stable 0 pluvieux-gris (approx.)
12678 09/08/2026 20:45 26.2 69.0 1,012.1 β†’ Stable 0 confortablement-chaud (approx.)
12677 09/08/2026 20:15 29.4 46.0 1,012.1 β†’ Stable 0 conditions-neutrales-ou-non-definies
12676 09/08/2026 19:45 29.7 46.0 1,010.2 β†’ Stable 0 conditions-neutrales-ou-non-definies
12675 09/08/2026 19:15 31.1 43.0 1,010.2 β†’ Stable 0 conditions-neutrales-ou-non-definies
12674 09/08/2026 18:45 31.6 42.0 1,010.8 β†’ Stable 4,728 conditions-neutrales-ou-non-definies
12673 09/08/2026 18:15 32.6 38.0 1,010.8 β†’ Stable 10,272 chaleur-seche
12672 09/08/2026 17:45 33.3 36.0 1,010.1 β†’ Stable 15,552 chaleur-seche
12671 09/08/2026 17:15 34.3 33.0 1,010.1 β†’ Stable 22,968 chaleur-seche
12670 09/08/2026 16:45 35.4 28.0 1,010.2 β†’ Stable 42,588 chaleur-seche
12669 09/08/2026 16:15 36.1 26.0 1,010.2 β†’ Stable 51,576 chaleur-seche
12668 09/08/2026 15:45 36.0 26.0 1,011.0 β†’ Stable 67,680 chaleur-seche
12667 09/08/2026 15:15 35.7 25.0 1,011.0 β†’ Stable 76,296 chaleur-seche
12666 09/08/2026 14:45 35.6 25.0 1,011.6 β†’ Stable 85,092 chaleur-seche
12665 09/08/2026 14:15 35.1 26.0 1,011.6 β†’ Stable 91,116 chaleur-seche